Agat, Guam
Current Conditions -  °F | °C
As of 2:09 AM on Wednesday 28 Jan 2015 (Local Time) from PGUM Reporting Station
Scattered Clouds Scattered Clouds  
Wind Chill: 79°   Ceiling: Unl
Heat Index: 82°   Visibility: 10mi
Dew Point: 73°   Wind: 3mph
Humidity: 83%   Direction: 80°E
Pressure: 29.83"   Gusts: NA
Location:  13.38°N, 144.65°E
Report Text: PGUM 271609Z 08003KT 10SM FEW017 SCT029 SCT040 26/23 A2983 RMK AO2
Loading
Personal Weather Stations






























Interactive Weather Map New forecast layout! Learn more

10-Day Weather Forecast

Advertisements
Track Severe Weather on mobile